createdAt,value
2022-11-05T00:02:27.344Z,17.55
2022-11-05T00:07:03.410Z,19.92
2022-11-05T00:11:40.756Z,21.73
2022-11-05T00:16:16.507Z,17.38
2022-11-05T00:20:33.812Z,24.75
2022-11-05T00:25:09.627Z,26.02
2022-11-05T00:29:26.873Z,25.20
2022-11-05T00:33:44.207Z,27.02
2022-11-05T00:38:01.511Z,23.80
2022-11-05T00:42:37.305Z,23.90
2022-11-05T00:47:14.576Z,23.00
2022-11-05T00:51:31.890Z,19.08
2022-11-05T00:55:49.200Z,22.23
2022-11-05T01:00:07.070Z,16.27
2022-11-05T01:04:24.369Z,28.57
2022-11-05T01:08:43.676Z,17.65
2022-11-05T01:13:01.041Z,23.27
2022-11-05T01:17:18.369Z,23.88
2022-11-05T01:21:36.200Z,16.98
2022-11-05T01:25:53.491Z,17.70
2022-11-05T01:30:11.467Z,13.98
2022-11-05T01:34:28.928Z,11.80
2022-11-05T01:38:46.181Z,12.85
2022-11-05T01:43:03.516Z,16.13
2022-11-05T01:47:32.424Z,15.43
2022-11-05T01:51:51.332Z,15.60
2022-11-05T01:56:14.785Z,13.55
2022-11-05T02:00:32.061Z,14.65
2022-11-05T02:04:54.761Z,15.23
2022-11-05T02:09:23.212Z,19.90
2022-11-05T02:13:40.848Z,13.48
2022-11-05T02:18:20.626Z,12.45
2022-11-05T02:23:01.757Z,14.38
2022-11-05T02:27:49.350Z,12.48
2022-11-05T02:32:25.231Z,12.63
2022-11-05T02:36:50.158Z,12.07
2022-11-05T02:41:30.261Z,11.63
2022-11-05T02:45:53.498Z,12.82
2022-11-05T02:50:46.665Z,14.55
2022-11-05T02:55:20.704Z,14.73
2022-11-05T02:59:38.027Z,15.90
2022-11-05T03:04:00.632Z,14.68
2022-11-05T03:08:43.048Z,15.50
2022-11-05T03:13:14.340Z,14.70
2022-11-05T03:17:56.512Z,17.83
2022-11-05T03:22:28.599Z,16.75
2022-11-05T03:26:51.738Z,17.92
2022-11-05T03:31:13.224Z,23.88
2022-11-05T03:35:35.851Z,20.13
2022-11-05T03:39:58.621Z,25.90
2022-11-05T03:44:21.958Z,17.25
2022-11-05T03:48:44.712Z,18.42
2022-11-05T03:53:12.819Z,16.92
2022-11-05T03:57:34.434Z,16.80
2022-11-05T04:01:51.724Z,18.88
2022-11-05T04:06:29.093Z,25.17
2022-11-05T04:11:05.058Z,19.70
2022-11-05T04:15:22.259Z,20.42
2022-11-05T04:20:00.122Z,19.08
2022-11-05T04:24:17.379Z,18.10
2022-11-05T04:28:53.308Z,19.05
2022-11-05T04:33:13.205Z,18.92
2022-11-05T04:37:30.699Z,20.13
2022-11-05T04:41:48.766Z,18.00
2022-11-05T04:46:06.110Z,20.35
2022-11-05T04:50:23.750Z,19.20
2022-11-05T04:54:40.943Z,19.85
2022-11-05T04:58:58.231Z,20.33
2022-11-05T05:03:15.489Z,21.95
2022-11-05T05:07:33.950Z,21.85
2022-11-05T05:11:51.203Z,22.63
2022-11-05T05:16:11.747Z,21.15
2022-11-05T05:20:47.630Z,24.75
2022-11-05T05:25:05.025Z,22.70
2022-11-05T05:29:22.274Z,22.48
2022-11-05T05:33:39.534Z,17.70
2022-11-05T05:37:56.836Z,19.63
2022-11-05T05:42:14.523Z,18.20
2022-11-05T05:46:31.731Z,18.70
2022-11-05T05:50:48.967Z,19.45
2022-11-05T05:55:06.593Z,18.55
2022-11-05T05:59:24.380Z,20.37
2022-11-05T06:03:41.679Z,19.55
2022-11-05T06:07:58.930Z,21.60
2022-11-05T06:12:16.161Z,20.58
2022-11-05T06:16:35.782Z,20.90
2022-11-05T06:20:52.995Z,22.45
2022-11-05T06:25:10.684Z,26.77
2022-11-05T06:29:28.049Z,24.23
2022-11-05T06:33:45.332Z,26.35
2022-11-05T06:38:02.657Z,26.60
2022-11-05T06:42:20.078Z,33.33
2022-11-05T06:46:37.296Z,23.55
2022-11-05T06:50:54.991Z,32.15
2022-11-05T06:55:12.150Z,23.77
2022-11-05T06:59:29.361Z,26.05
2022-11-05T07:03:48.945Z,25.13
2022-11-05T07:08:06.620Z,22.20
2022-11-05T07:12:23.881Z,21.67
2022-11-05T07:16:41.277Z,21.23
2022-11-05T07:30:24.363Z,21.67
2022-11-05T07:34:41.664Z,23.15
2022-11-05T07:39:00.506Z,24.33
2022-11-05T07:43:17.946Z,21.17
2022-11-05T07:47:37.868Z,26.30
2022-11-05T07:51:55.038Z,19.73
2022-11-05T07:56:12.918Z,19.65
2022-11-05T08:00:30.612Z,19.20
2022-11-05T08:04:47.793Z,17.45
2022-11-05T08:09:05.342Z,17.55
2022-11-05T08:13:22.558Z,20.92
2022-11-05T08:17:39.853Z,22.33
2022-11-05T08:21:57.071Z,18.25
2022-11-05T08:26:14.318Z,23.13
2022-11-05T08:30:32.756Z,17.17
2022-11-05T08:34:50.067Z,17.92
2022-11-05T08:39:07.434Z,15.60
2022-11-05T08:43:25.252Z,14.98
2022-11-05T08:47:42.447Z,15.70
2022-11-05T08:51:59.661Z,16.88
2022-11-05T08:56:17.105Z,15.85
2022-11-05T09:00:36.446Z,15.65
2022-11-05T09:04:53.631Z,18.50
2022-11-05T09:09:10.852Z,18.10
2022-11-05T09:13:28.222Z,18.13
2022-11-05T09:17:45.447Z,18.45
2022-11-05T09:22:02.609Z,15.07
2022-11-05T09:26:19.854Z,15.10
2022-11-05T09:30:41.758Z,14.77
2022-11-05T09:35:01.119Z,15.20
2022-11-05T09:39:18.338Z,14.68
2022-11-05T09:43:47.351Z,10.55
2022-11-05T09:48:12.180Z,10.73
2022-11-05T09:52:31.858Z,9.50
2022-11-05T09:56:49.248Z,8.05
2022-11-05T10:01:14.308Z,8.95
2022-11-05T10:05:33.811Z,8.52
2022-11-05T10:10:01.867Z,7.78
2022-11-05T10:14:27.279Z,6.88
2022-11-05T10:18:50.436Z,6.05
2022-11-05T10:23:15.023Z,5.00
2022-11-05T10:27:36.462Z,5.10
2022-11-05T10:31:55.147Z,5.80
2022-11-05T10:36:20.831Z,4.78
2022-11-05T10:41:05.302Z,4.15
2022-11-05T10:45:34.965Z,4.47
2022-11-05T10:49:52.389Z,3.80
2022-11-05T10:54:18.036Z,3.90
2022-11-05T10:58:38.949Z,3.55
2022-11-05T11:03:01.664Z,3.22
2022-11-05T11:07:24.557Z,3.50
2022-11-05T11:11:43.119Z,3.45
2022-11-05T11:16:21.612Z,3.92
2022-11-05T11:20:44.945Z,3.17
2022-11-05T11:25:23.127Z,3.70
2022-11-05T11:29:48.979Z,4.50
2022-11-05T11:34:17.133Z,4.35
2022-11-05T11:38:36.503Z,4.35
2022-11-05T11:43:00.344Z,4.40
2022-11-05T11:47:20.910Z,3.53
2022-11-05T11:51:40.591Z,3.85
2022-11-05T11:56:01.183Z,3.38
2022-11-05T12:00:20.684Z,2.88
2022-11-05T12:04:58.897Z,2.42
2022-11-05T12:09:40.693Z,3.47
2022-11-05T12:14:26.863Z,3.22
2022-11-05T12:18:52.799Z,2.80
2022-11-05T12:23:40.933Z,2.90
2022-11-05T12:28:19.502Z,3.13
2022-11-05T12:33:01.340Z,4.70
2022-11-05T12:37:53.324Z,3.42
2022-11-05T12:42:23.916Z,3.53
2022-11-05T12:46:51.474Z,3.20
2022-11-05T12:51:32.749Z,2.53
2022-11-05T12:55:51.817Z,3.15
2022-11-05T13:00:18.523Z,2.38
2022-11-05T13:04:44.006Z,2.47
2022-11-05T13:09:23.422Z,2.40
2022-11-05T13:14:05.638Z,2.33
2022-11-05T13:18:37.835Z,2.00
2022-11-05T13:23:16.287Z,1.80
2022-11-05T13:28:05.290Z,1.73
2022-11-05T13:32:36.932Z,1.75
2022-11-05T13:37:22.637Z,1.70
2022-11-05T13:42:04.296Z,2.65
2022-11-05T13:46:43.007Z,2.40
2022-11-05T13:51:42.942Z,2.55
2022-11-05T13:56:11.345Z,1.98
2022-11-05T14:00:32.983Z,2.33
2022-11-05T14:05:00.514Z,2.60
2022-11-05T14:09:26.431Z,2.50
2022-11-05T14:13:45.668Z,2.90
2022-11-05T14:18:25.908Z,2.20
2022-11-05T14:22:43.272Z,2.10
2022-11-05T14:27:00.419Z,2.60
2022-11-05T14:31:47.400Z,3.17
2022-11-05T14:36:21.911Z,2.60
2022-11-05T14:40:42.387Z,2.58
2022-11-05T14:45:02.000Z,2.70
2022-11-05T14:49:23.689Z,3.28
2022-11-05T14:53:41.072Z,2.78
2022-11-05T14:57:58.251Z,2.38
2022-11-05T15:02:18.301Z,2.70
2022-11-05T15:06:36.682Z,3.28
2022-11-05T15:10:58.124Z,3.10
2022-11-05T15:15:30.375Z,5.70
2022-11-05T15:19:48.121Z,4.75
2022-11-05T15:24:05.992Z,4.80
2022-11-05T15:28:44.435Z,4.80
2022-11-05T15:33:18.844Z,4.93
2022-11-05T15:37:36.088Z,6.70
2022-11-05T15:41:53.420Z,7.60
2022-11-05T15:46:21.885Z,7.22
2022-11-05T15:50:39.233Z,8.10
2022-11-05T15:55:20.125Z,9.27
2022-11-05T15:59:37.530Z,7.45
2022-11-05T16:03:58.077Z,8.20
2022-11-05T16:08:20.263Z,9.85
2022-11-05T16:12:37.749Z,7.22
2022-11-05T16:16:55.048Z,15.00
2022-11-05T16:21:18.591Z,8.02
2022-11-05T16:25:43.551Z,8.32
2022-11-05T16:30:00.815Z,5.90
2022-11-05T16:34:45.503Z,6.97
2022-11-05T16:39:02.779Z,8.15
2022-11-05T16:43:23.623Z,9.80
2022-11-05T16:47:41.419Z,10.00
2022-11-05T16:51:59.726Z,9.90
2022-11-05T16:56:21.513Z,11.38
2022-11-05T17:00:39.287Z,10.90
2022-11-05T17:04:56.574Z,10.37
2022-11-05T17:09:13.850Z,10.88
2022-11-05T17:13:31.489Z,9.20
2022-11-05T17:17:49.444Z,13.57
2022-11-05T17:22:06.659Z,11.45
2022-11-05T17:26:24.281Z,12.13
2022-11-05T17:30:42.147Z,10.45
2022-11-05T17:34:59.478Z,11.88
2022-11-05T17:39:16.699Z,16.05
2022-11-05T17:43:33.885Z,14.70
2022-11-05T17:47:51.095Z,12.55
2022-11-05T17:52:08.299Z,13.65
2022-11-05T17:56:34.094Z,13.80
2022-11-05T18:00:52.560Z,14.05
2022-11-05T18:05:10.251Z,16.50
2022-11-05T18:09:27.482Z,18.23
2022-11-05T18:13:44.711Z,23.45
2022-11-05T18:18:01.975Z,16.98
2022-11-05T18:22:19.552Z,25.95
2022-11-05T18:26:36.806Z,22.45
2022-11-05T18:30:54.015Z,17.48
2022-11-05T18:35:13.321Z,23.92
2022-11-05T18:39:30.567Z,18.80
2022-11-05T18:43:48.134Z,17.10
2022-11-05T18:48:05.622Z,15.90
2022-11-05T18:52:22.926Z,23.70
2022-11-05T18:56:45.254Z,18.70
2022-11-05T19:01:06.557Z,19.50
2022-11-05T19:05:29.335Z,17.85
2022-11-05T19:09:47.090Z,25.48
2022-11-05T19:14:04.393Z,17.67
2022-11-05T19:18:21.591Z,21.60
2022-11-05T19:22:38.859Z,16.88
2022-11-05T19:26:56.215Z,16.90
2022-11-05T19:31:19.356Z,17.40
2022-11-05T19:35:41.396Z,26.95
2022-11-05T19:39:58.804Z,20.10
2022-11-05T19:44:16.033Z,20.25
2022-11-05T19:48:33.702Z,51.33
2022-11-05T19:52:50.958Z,38.33
2022-11-05T19:57:08.177Z,36.47
2022-11-05T20:01:27.567Z,34.88
2022-11-05T20:05:44.938Z,25.55
2022-11-05T20:10:02.193Z,35.25
2022-11-05T20:14:19.720Z,26.35
2022-11-05T20:18:36.894Z,25.85
2022-11-05T20:22:54.219Z,21.77
2022-11-05T20:27:11.439Z,23.30
2022-11-05T20:31:28.648Z,26.63
2022-11-05T20:35:45.924Z,32.17
2022-11-05T20:40:03.344Z,30.60
2022-11-05T20:44:20.619Z,29.38
2022-11-05T20:48:37.905Z,19.08
2022-11-05T20:52:55.172Z,17.48
2022-11-05T20:57:12.357Z,15.95
2022-11-05T21:01:32.123Z,25.60
2022-11-05T21:05:54.436Z,30.83
2022-11-05T21:10:11.942Z,33.58
2022-11-05T21:14:29.146Z,35.38
2022-11-05T21:18:47.644Z,20.73
2022-11-05T21:23:04.859Z,19.15
2022-11-05T21:27:22.452Z,15.05
2022-11-05T21:31:39.821Z,15.77
2022-11-05T21:35:57.407Z,15.27
2022-11-05T21:40:15.158Z,14.90
2022-11-05T21:44:32.438Z,15.63
2022-11-05T21:48:49.662Z,13.77
2022-11-05T21:53:27.367Z,14.07
2022-11-05T21:58:03.294Z,13.45
2022-11-05T22:02:25.535Z,14.05
2022-11-05T22:06:42.916Z,13.65
2022-11-05T22:11:03.750Z,12.77
2022-11-05T22:15:20.979Z,14.82
2022-11-05T22:19:38.477Z,13.82
2022-11-05T22:23:55.703Z,15.25
2022-11-05T22:28:13.235Z,14.70
2022-11-05T22:32:30.752Z,17.17
2022-11-05T22:36:47.962Z,16.17
2022-11-05T22:41:08.539Z,16.23
2022-11-05T22:45:25.760Z,14.65
2022-11-05T22:49:43.169Z,14.48
2022-11-05T22:54:00.910Z,13.68
2022-11-05T22:58:18.098Z,15.50
2022-11-05T23:02:35.436Z,16.63
2022-11-05T23:07:11.400Z,15.82
2022-11-05T23:11:40.771Z,17.48
2022-11-05T23:16:16.582Z,18.33
2022-11-05T23:20:52.678Z,19.20
2022-11-05T23:25:13.123Z,19.98
2022-11-05T23:29:30.652Z,15.63
2022-11-05T23:33:47.852Z,15.73
2022-11-05T23:38:23.700Z,17.20
2022-11-05T23:43:00.809Z,15.45
2022-11-05T23:47:36.846Z,16.23
2022-11-05T23:51:54.052Z,16.65
2022-11-05T23:56:14.581Z,16.08
